createdAt,value
2018-08-25T00:00:39.032Z,83.51
2018-08-25T00:03:08.493Z,84.32
2018-08-25T00:05:37.949Z,82.68
2018-08-25T00:08:07.554Z,82.62
2018-08-25T00:10:36.355Z,82.36
2018-08-25T00:13:05.245Z,82.04
2018-08-25T00:15:34.033Z,83.06
2018-08-25T00:18:03.135Z,83.77
2018-08-25T00:20:31.817Z,83.65
2018-08-25T00:23:00.511Z,82.58
2018-08-25T00:25:29.313Z,82.32
2018-08-25T00:27:57.997Z,83.06
2018-08-25T00:30:32.140Z,83.00
2018-08-25T00:33:00.942Z,83.01
2018-08-25T00:35:30.323Z,83.24
2018-08-25T00:37:59.176Z,82.48
2018-08-25T00:40:28.627Z,81.89
2018-08-25T00:42:57.420Z,81.32
2018-08-25T00:45:26.088Z,82.21
2018-08-25T00:47:55.873Z,82.04
2018-08-25T00:50:24.748Z,81.53
2018-08-25T00:52:53.870Z,81.57
2018-08-25T00:55:23.223Z,80.92
2018-08-25T00:57:51.913Z,80.82
2018-08-25T01:00:21.224Z,80.27
2018-08-25T01:02:50.319Z,80.21
2018-08-25T01:05:19.252Z,80.41
2018-08-25T01:07:48.049Z,80.31
2018-08-25T01:10:16.735Z,81.64
2018-08-25T01:12:45.498Z,81.08
2018-08-25T01:15:14.944Z,81.32
2018-08-25T01:17:44.094Z,81.92
2018-08-25T01:20:13.075Z,82.44
2018-08-25T01:22:41.809Z,83.64
2018-08-25T01:25:12.133Z,83.13
2018-08-25T01:27:40.818Z,84.08
2018-08-25T01:30:09.715Z,85.27
2018-08-25T01:32:38.422Z,85.28
2018-08-25T01:35:07.406Z,84.49
2018-08-25T01:37:36.193Z,86.33
2018-08-25T01:40:05.183Z,86.18
2018-08-25T01:42:33.860Z,85.73
2018-08-25T01:45:02.556Z,86.50
2018-08-25T01:47:31.367Z,87.12
2018-08-25T01:50:00.268Z,87.81
2018-08-25T01:52:29.264Z,87.72
2018-08-25T01:54:58.767Z,87.68
2018-08-25T01:57:27.471Z,87.30
2018-08-25T01:59:56.837Z,87.39
2018-08-25T02:02:25.769Z,88.52
2018-08-25T02:04:54.457Z,88.47
2018-08-25T02:07:23.250Z,89.08
2018-08-25T02:09:52.046Z,89.53
2018-08-25T02:12:20.939Z,89.53
2018-08-25T02:14:49.823Z,89.91
2018-08-25T02:17:18.479Z,90.56
2018-08-25T02:19:47.311Z,91.25
2018-08-25T02:22:16.133Z,91.74
2018-08-25T02:24:45.561Z,91.21
2018-08-25T02:27:15.322Z,90.44
2018-08-25T02:29:44.078Z,90.37
2018-08-25T02:32:12.863Z,90.12
2018-08-25T02:34:41.719Z,90.68
2018-08-25T02:37:10.616Z,91.46
2018-08-25T02:39:40.035Z,90.30
2018-08-25T02:42:08.915Z,89.18
2018-08-25T02:44:38.016Z,88.66
2018-08-25T02:47:06.704Z,87.63
2018-08-25T02:49:35.496Z,88.34
2018-08-25T02:52:04.398Z,88.64
2018-08-25T02:54:33.185Z,88.09
2018-08-25T02:57:02.451Z,87.85
2018-08-25T02:59:31.387Z,88.68
2018-08-25T03:02:00.036Z,88.68
2018-08-25T03:04:28.877Z,89.44
2018-08-25T03:06:57.663Z,89.56
2018-08-25T03:09:26.351Z,89.89
2018-08-25T03:11:55.008Z,89.94
2018-08-25T03:14:23.703Z,90.40
2018-08-25T03:16:52.724Z,90.20
2018-08-25T03:19:21.908Z,90.54
2018-08-25T03:21:50.559Z,90.36
2018-08-25T03:24:20.385Z,90.12
2018-08-25T03:26:49.249Z,90.98
2018-08-25T03:29:18.023Z,91.10
2018-08-25T03:31:46.954Z,89.83
2018-08-25T03:34:15.728Z,89.82
2018-08-25T03:36:44.599Z,90.28
2018-08-25T03:39:14.537Z,91.66
2018-08-25T03:41:43.336Z,91.12
2018-08-25T03:44:12.386Z,90.59
2018-08-25T03:46:41.377Z,90.82
2018-08-25T03:49:11.252Z,91.37
2018-08-25T03:51:39.937Z,90.31
2018-08-25T03:54:08.766Z,91.59
2018-08-25T03:56:37.440Z,91.92
2018-08-25T03:59:06.318Z,90.67
2018-08-25T04:01:35.777Z,91.65
2018-08-25T04:04:04.574Z,92.86
2018-08-25T04:06:33.317Z,93.44
2018-08-25T04:09:02.138Z,93.70
2018-08-25T04:11:30.933Z,93.84
2018-08-25T04:13:59.903Z,94.26
2018-08-25T04:16:29.135Z,94.49
2018-08-25T04:18:58.120Z,94.23
2018-08-25T04:21:27.491Z,94.02
2018-08-25T04:23:56.329Z,93.38
2018-08-25T04:26:26.053Z,93.33
2018-08-25T04:28:54.793Z,93.75
2018-08-25T04:31:23.802Z,94.58
2018-08-25T04:33:52.502Z,93.83
2018-08-25T04:36:21.400Z,94.09
2018-08-25T04:38:50.911Z,93.15
2018-08-25T04:41:20.044Z,92.33
2018-08-25T04:43:49.108Z,92.48
2018-08-25T04:46:17.802Z,91.70
2018-08-25T04:48:46.695Z,91.46
2018-08-25T04:51:15.991Z,91.81
2018-08-25T04:53:45.442Z,91.67
2018-08-25T04:56:14.194Z,91.41
2018-08-25T04:58:42.992Z,90.98
2018-08-25T05:01:12.608Z,91.61
2018-08-25T05:03:41.301Z,91.21
2018-08-25T05:06:10.212Z,90.71
2018-08-25T05:08:39.213Z,91.00
2018-08-25T05:11:08.701Z,90.16
2018-08-25T05:13:37.589Z,89.37
2018-08-25T05:16:06.627Z,89.75
2018-08-25T05:18:36.122Z,89.72
2018-08-25T05:21:05.393Z,89.71
2018-08-25T05:23:34.202Z,90.64
2018-08-25T05:26:03.700Z,90.62
2018-08-25T05:28:32.699Z,91.07
2018-08-25T05:31:01.606Z,90.86
2018-08-25T05:33:30.288Z,91.02
2018-08-25T05:35:59.515Z,91.71
2018-08-25T05:38:28.320Z,91.57
2018-08-25T05:40:57.189Z,91.72
2018-08-25T05:43:25.986Z,91.86
2018-08-25T05:45:54.768Z,92.28
2018-08-25T05:48:23.450Z,91.51
2018-08-25T05:50:52.510Z,91.37
2018-08-25T05:53:21.179Z,91.59
2018-08-25T05:55:50.647Z,91.51
2018-08-25T05:58:19.563Z,90.60
2018-08-25T06:00:49.074Z,90.53
2018-08-25T06:03:18.583Z,90.22
2018-08-25T06:05:47.511Z,90.20
2018-08-25T06:08:16.363Z,90.00
2018-08-25T06:10:45.158Z,89.93
2018-08-25T06:13:14.740Z,89.72
2018-08-25T06:15:43.571Z,88.97
2018-08-25T06:18:12.243Z,87.51
2018-08-25T06:33:40.513Z,86.43
2018-08-25T06:36:10.194Z,86.77
2018-08-25T06:38:39.548Z,86.10
2018-08-25T06:41:08.452Z,86.35
2018-08-25T06:43:37.717Z,86.46
2018-08-25T06:46:08.683Z,85.99
2018-08-25T06:48:39.833Z,85.55
2018-08-25T06:51:09.014Z,85.88
2018-08-25T06:53:38.195Z,86.48
2018-08-25T06:56:06.903Z,85.94
2018-08-25T06:58:35.624Z,86.21
2018-08-25T07:01:04.506Z,86.46
2018-08-25T07:03:33.332Z,85.53
2018-08-25T07:06:02.816Z,84.95
2018-08-25T07:08:32.867Z,83.40
2018-08-25T07:11:01.614Z,82.39
2018-08-25T07:13:30.333Z,82.23
2018-08-25T07:15:59.195Z,81.11
2018-08-25T07:18:28.004Z,81.22
2018-08-25T07:20:56.788Z,80.71
2018-08-25T07:23:25.590Z,80.21
2018-08-25T07:25:54.500Z,79.29
2018-08-25T07:28:23.935Z,79.51
2018-08-25T07:30:52.794Z,78.57
2018-08-25T07:33:21.582Z,78.70
2018-08-25T07:35:50.382Z,77.40
2018-08-25T07:38:19.318Z,76.26
2018-08-25T07:40:48.844Z,75.92
2018-08-25T07:43:17.679Z,77.28
2018-08-25T07:45:46.448Z,76.02
2018-08-25T07:48:15.264Z,75.17
2018-08-25T07:50:44.076Z,76.08
2018-08-25T07:53:12.953Z,74.86
2018-08-25T07:55:42.044Z,74.26
2018-08-25T07:58:11.780Z,74.55
2018-08-25T08:00:40.564Z,74.13
2018-08-25T08:03:09.437Z,75.46
2018-08-25T08:05:39.268Z,76.10
2018-08-25T08:08:09.300Z,73.33
2018-08-25T08:10:38.079Z,74.24
2018-08-25T08:13:06.989Z,72.02
2018-08-25T08:15:37.330Z,65.66
2018-08-25T08:18:07.336Z,60.80
2018-08-25T08:20:36.718Z,57.58
2018-08-25T08:23:06.798Z,57.90
2018-08-25T08:25:36.213Z,56.82
2018-08-25T08:28:06.483Z,56.77
2018-08-25T08:30:35.858Z,55.40
2018-08-25T08:33:05.352Z,53.05
2018-08-25T08:35:34.937Z,51.68
2018-08-25T08:38:04.404Z,51.20
2018-08-25T08:40:33.750Z,51.98
2018-08-25T08:43:03.147Z,54.83
2018-08-25T08:45:32.823Z,54.00
2018-08-25T08:48:02.259Z,54.25
2018-08-25T08:50:31.781Z,51.65
2018-08-25T08:53:01.854Z,50.29
2018-08-25T08:55:31.861Z,49.93
2018-08-25T08:58:01.335Z,50.07
2018-08-25T09:00:30.983Z,50.32
2018-08-25T09:03:00.311Z,49.35
2018-08-25T09:05:30.836Z,49.83
2018-08-25T09:08:00.104Z,50.42
2018-08-25T09:10:29.389Z,50.61
2018-08-25T09:12:59.156Z,51.93
2018-08-25T09:15:29.586Z,50.21
2018-08-25T09:17:59.764Z,50.75
2018-08-25T09:20:29.081Z,49.50
2018-08-25T09:22:58.372Z,50.74
2018-08-25T09:25:27.688Z,50.37
2018-08-25T09:27:57.660Z,50.11
2018-08-25T09:30:27.369Z,49.17
2018-08-25T09:32:56.772Z,47.51
2018-08-25T09:35:26.145Z,46.60
2018-08-25T09:37:55.564Z,49.82
2018-08-25T09:40:24.912Z,51.61
2018-08-25T09:42:54.236Z,48.58
2018-08-25T09:45:24.955Z,47.08
2018-08-25T09:47:54.341Z,48.05
2018-08-25T09:50:23.901Z,46.22
2018-08-25T09:52:54.114Z,46.12
2018-08-25T09:55:23.656Z,46.69
2018-08-25T09:57:53.807Z,45.27
2018-08-25T10:00:23.071Z,45.14
2018-08-25T10:02:52.517Z,45.25
2018-08-25T10:05:21.938Z,45.09
2018-08-25T10:07:51.470Z,45.88
2018-08-25T10:10:20.901Z,44.90
2018-08-25T10:12:50.260Z,45.22
2018-08-25T10:15:19.949Z,45.45
2018-08-25T10:17:49.482Z,45.63
2018-08-25T10:20:19.758Z,46.49
2018-08-25T10:22:49.205Z,47.02
2018-08-25T10:25:18.660Z,48.46
2018-08-25T10:27:47.956Z,49.09
2018-08-25T10:30:17.860Z,49.08
2018-08-25T10:32:47.204Z,48.97
2018-08-25T10:35:17.436Z,49.28
2018-08-25T10:37:46.757Z,49.16
2018-08-25T10:40:16.158Z,50.46
2018-08-25T10:42:45.453Z,50.77
2018-08-25T10:45:14.758Z,52.87
2018-08-25T10:47:44.263Z,52.31
2018-08-25T10:50:13.565Z,51.62
2018-08-25T10:52:42.872Z,51.81
2018-08-25T10:55:12.157Z,50.07
2018-08-25T10:57:41.477Z,51.08
2018-08-25T11:00:10.989Z,49.81
2018-08-25T11:02:40.300Z,50.90
2018-08-25T11:05:09.706Z,50.37
2018-08-25T11:07:40.078Z,51.46
2018-08-25T11:10:09.594Z,49.88
2018-08-25T11:12:39.291Z,49.18
2018-08-25T11:15:08.785Z,47.94
2018-08-25T11:17:38.797Z,49.65
2018-08-25T11:20:08.181Z,50.23
2018-08-25T11:22:37.506Z,47.23
2018-08-25T11:25:07.933Z,47.89
2018-08-25T11:27:37.339Z,49.04
2018-08-25T11:30:06.952Z,49.49
2018-08-25T11:32:36.287Z,50.62
2018-08-25T11:35:06.814Z,51.29
2018-08-25T11:37:36.399Z,50.89
2018-08-25T11:40:07.027Z,50.27
2018-08-25T11:42:36.701Z,49.27
2018-08-25T11:45:07.051Z,50.92
2018-08-25T11:47:37.148Z,51.22
2018-08-25T11:50:06.917Z,51.09
2018-08-25T11:52:36.323Z,52.10
2018-08-25T11:55:06.820Z,52.57
2018-08-25T11:57:36.938Z,52.80
2018-08-25T12:00:07.348Z,51.28
2018-08-25T12:02:36.934Z,51.48
2018-08-25T12:05:06.647Z,50.69
2018-08-25T12:07:36.672Z,52.07
2018-08-25T12:10:07.580Z,52.47
2018-08-25T12:12:36.859Z,51.36
2018-08-25T12:15:07.472Z,52.13
2018-08-25T12:17:37.310Z,50.69
2018-08-25T12:20:07.023Z,49.55
2018-08-25T12:34:34.409Z,49.59
2018-08-25T12:37:03.812Z,46.35
2018-08-25T12:39:33.251Z,47.29
2018-08-25T12:42:02.828Z,48.34
2018-08-25T12:44:32.122Z,49.77
2018-08-25T12:47:02.258Z,49.65
2018-08-25T12:49:31.609Z,51.24
2018-08-25T12:52:01.013Z,50.82
2018-08-25T12:54:30.298Z,52.00
2018-08-25T12:56:59.675Z,51.45
2018-08-25T12:59:29.145Z,51.92
2018-08-25T13:01:58.491Z,52.90
2018-08-25T13:04:28.487Z,52.00
2018-08-25T13:06:59.063Z,53.96
2018-08-25T13:09:29.256Z,54.22
2018-08-25T13:11:57.932Z,55.58
2018-08-25T13:14:27.772Z,53.37
2018-08-25T13:16:57.191Z,54.44
2018-08-25T13:19:26.599Z,54.78
2018-08-25T13:21:56.120Z,52.71
2018-08-25T13:24:26.315Z,51.86
2018-08-25T13:26:55.632Z,52.49
2018-08-25T13:29:25.855Z,51.09
2018-08-25T13:31:55.597Z,52.08
2018-08-25T13:34:25.193Z,51.82
2018-08-25T13:36:55.187Z,52.86
2018-08-25T13:39:24.621Z,51.17
2018-08-25T13:41:53.415Z,51.24
2018-08-25T13:44:22.994Z,51.63
2018-08-25T13:46:52.535Z,51.83
2018-08-25T13:49:21.942Z,52.06
2018-08-25T13:51:51.073Z,51.87
2018-08-25T13:54:19.933Z,53.12
2018-08-25T13:56:49.028Z,53.50
2018-08-25T13:59:17.735Z,53.96
2018-08-25T14:01:46.553Z,54.87
2018-08-25T14:04:15.523Z,55.23
2018-08-25T14:06:44.319Z,56.54
2018-08-25T14:09:13.228Z,56.60
2018-08-25T14:11:42.043Z,57.28
2018-08-25T14:14:11.413Z,57.48
2018-08-25T14:16:42.240Z,57.62
2018-08-25T14:19:11.509Z,57.27
2018-08-25T14:21:40.240Z,57.94
2018-08-25T14:24:09.036Z,58.05
2018-08-25T14:26:38.449Z,57.45
2018-08-25T14:29:07.547Z,57.47
2018-08-25T14:31:36.679Z,57.98
2018-08-25T14:34:06.257Z,58.58
2018-08-25T14:36:35.065Z,57.58
2018-08-25T14:39:05.524Z,56.46
2018-08-25T14:41:34.512Z,57.34
2018-08-25T14:44:04.416Z,58.12
2018-08-25T14:46:33.309Z,57.71
2018-08-25T14:49:02.667Z,58.78
2018-08-25T14:51:32.165Z,58.64
2018-08-25T14:54:01.010Z,58.50
2018-08-25T14:56:29.993Z,59.21
2018-08-25T14:58:59.787Z,58.10
2018-08-25T15:01:28.618Z,58.63
2018-08-25T15:03:58.732Z,58.59
2018-08-25T15:06:27.538Z,59.58
2018-08-25T15:08:56.841Z,59.52
2018-08-25T15:11:25.747Z,58.62
2018-08-25T15:13:54.692Z,58.16
2018-08-25T15:16:25.200Z,57.84
2018-08-25T15:18:54.282Z,57.49
2018-08-25T15:21:23.187Z,58.49
2018-08-25T15:23:51.957Z,58.27
2018-08-25T15:26:20.804Z,57.92
2018-08-25T15:28:50.221Z,58.87
2018-08-25T15:31:19.599Z,59.49
2018-08-25T15:33:48.443Z,59.24
2018-08-25T15:36:17.657Z,58.99
2018-08-25T15:38:47.069Z,59.95
2018-08-25T15:41:15.736Z,59.81
2018-08-25T15:43:45.172Z,60.07
2018-08-25T15:46:14.452Z,59.60
2018-08-25T15:48:43.184Z,60.20
2018-08-25T15:51:12.192Z,59.77
2018-08-25T15:53:41.055Z,60.67
2018-08-25T15:56:09.767Z,59.72
2018-08-25T15:58:38.643Z,60.29
2018-08-25T16:01:08.310Z,61.50
2018-08-25T16:03:38.537Z,61.98
2018-08-25T16:08:35.353Z,63.00
2018-08-25T16:11:04.048Z,62.82
2018-08-25T16:13:32.901Z,63.54
2018-08-25T16:16:02.348Z,64.06
2018-08-25T16:18:31.178Z,64.12
2018-08-25T16:21:00.037Z,64.93
2018-08-25T16:23:28.818Z,64.34
2018-08-25T16:25:57.729Z,65.22
2018-08-25T16:28:27.031Z,64.71
2018-08-25T16:30:56.210Z,65.75
2018-08-25T16:33:25.039Z,65.98
2018-08-25T16:35:54.025Z,65.74
2018-08-25T16:38:23.323Z,65.66
2018-08-25T16:40:52.228Z,66.87
2018-08-25T16:43:21.222Z,67.43
2018-08-25T16:45:50.536Z,67.37
2018-08-25T16:48:20.039Z,67.34
2018-08-25T16:50:49.156Z,65.72
2018-08-25T16:53:19.287Z,64.09
2018-08-25T16:55:48.840Z,63.20
2018-08-25T16:58:17.873Z,62.96
2018-08-25T17:00:47.300Z,64.51
2018-08-25T17:03:16.787Z,65.08
2018-08-25T17:05:45.922Z,65.28
2018-08-25T17:08:14.898Z,66.79
2018-08-25T17:10:43.919Z,67.76
2018-08-25T17:13:14.150Z,68.50
2018-08-25T17:15:44.338Z,68.17
2018-08-25T17:18:13.922Z,68.87
2018-08-25T17:20:46.330Z,69.84
2018-08-25T17:23:15.719Z,70.43
2018-08-25T17:25:44.525Z,70.27
2018-08-25T17:28:13.830Z,70.83
2018-08-25T17:30:44.659Z,71.75
2018-08-25T17:33:13.475Z,73.58
2018-08-25T17:35:42.375Z,74.40
2018-08-25T17:38:11.892Z,74.55
2018-08-25T17:40:41.407Z,75.77
2018-08-25T17:43:10.178Z,76.08
2018-08-25T17:45:39.002Z,76.73
2018-08-25T17:48:08.055Z,76.64
2018-08-25T17:50:38.075Z,76.82
2018-08-25T17:53:07.175Z,77.45
2018-08-25T17:55:35.978Z,77.94
2018-08-25T17:58:04.770Z,78.79
2018-08-25T18:00:34.113Z,79.70
2018-08-25T18:03:03.283Z,80.45
2018-08-25T18:05:32.119Z,81.53
2018-08-25T18:08:01.160Z,81.48
2018-08-25T18:10:30.169Z,81.96
2018-08-25T18:12:59.150Z,81.90
2018-08-25T18:15:27.967Z,82.30
2018-08-25T18:17:56.891Z,82.98
2018-08-25T18:20:26.583Z,83.20
2018-08-25T18:22:55.371Z,83.72
2018-08-25T18:25:24.352Z,84.16
2018-08-25T18:27:54.082Z,84.66
2018-08-25T18:30:23.621Z,84.69
2018-08-25T18:32:52.716Z,85.05
2018-08-25T18:35:21.793Z,84.84
2018-08-25T18:37:50.793Z,84.43
2018-08-25T18:40:19.689Z,84.92
2018-08-25T18:42:48.367Z,83.75
2018-08-25T18:45:17.101Z,84.03
2018-08-25T18:47:46.162Z,84.66
2018-08-25T18:50:15.003Z,85.23
2018-08-25T18:52:44.274Z,85.23
2018-08-25T18:55:13.338Z,84.89
2018-08-25T18:57:42.743Z,84.54
2018-08-25T19:00:11.811Z,84.17
2018-08-25T19:02:40.663Z,84.29
2018-08-25T19:05:09.553Z,84.01
2018-08-25T19:07:38.260Z,85.10
2018-08-25T19:10:07.340Z,84.78
2018-08-25T19:12:36.039Z,84.35
2018-08-25T19:15:04.952Z,84.74
2018-08-25T19:17:35.425Z,84.01
2018-08-25T19:20:04.990Z,84.33
2018-08-25T19:22:33.771Z,84.26
2018-08-25T19:25:02.771Z,84.40
2018-08-25T19:27:31.565Z,84.18
2018-08-25T19:30:00.840Z,83.54
2018-08-25T19:32:29.573Z,82.89
2018-08-25T19:34:59.173Z,82.78
2018-08-25T19:37:28.083Z,83.24
2018-08-25T19:39:56.904Z,83.01
2018-08-25T19:42:25.764Z,83.25
2018-08-25T19:44:54.464Z,82.33
2018-08-25T19:47:23.352Z,81.82
2018-08-25T19:49:52.492Z,81.71
2018-08-25T19:52:21.248Z,82.06
2018-08-25T19:54:50.175Z,82.62
2018-08-25T19:57:18.947Z,83.71
2018-08-25T19:59:47.824Z,83.90
2018-08-25T20:02:16.850Z,83.90
2018-08-25T20:04:46.166Z,83.72
2018-08-25T20:07:14.852Z,83.64
2018-08-25T20:09:43.750Z,82.91
2018-08-25T20:12:12.515Z,83.40
2018-08-25T20:14:41.308Z,83.71
2018-08-25T20:17:10.298Z,82.76
2018-08-25T20:19:39.764Z,82.89
2018-08-25T20:22:09.632Z,82.62
2018-08-25T20:24:39.345Z,81.49
2018-08-25T20:27:08.752Z,80.67
2018-08-25T20:29:37.623Z,80.49
2018-08-25T20:32:07.000Z,81.07
2018-08-25T20:34:35.744Z,79.76
2018-08-25T20:37:04.524Z,80.46
2018-08-25T20:39:33.405Z,81.10
2018-08-25T20:42:02.315Z,80.25
2018-08-25T20:44:31.011Z,80.64
2018-08-25T20:46:59.668Z,80.61
2018-08-25T20:49:28.508Z,80.82
2018-08-25T20:51:57.607Z,80.56
2018-08-25T20:54:26.402Z,80.34
2018-08-25T20:56:55.413Z,80.96
2018-08-25T20:59:24.921Z,81.62
2018-08-25T21:01:53.706Z,81.84
2018-08-25T21:04:23.097Z,81.68
2018-08-25T21:06:51.820Z,82.79
2018-08-25T21:09:20.594Z,82.43
2018-08-25T21:11:49.288Z,82.37
2018-08-25T21:14:18.708Z,82.62
2018-08-25T21:16:47.650Z,82.17
2018-08-25T21:19:16.359Z,81.95
2018-08-25T21:21:45.066Z,81.80
2018-08-25T21:24:13.849Z,80.91
2018-08-25T21:26:42.537Z,80.37
2018-08-25T21:29:11.241Z,80.27
2018-08-25T21:31:40.334Z,79.61
2018-08-25T21:34:09.244Z,80.20
2018-08-25T21:36:38.779Z,79.60
2018-08-25T21:39:10.143Z,79.04
2018-08-25T21:41:38.935Z,79.76
2018-08-25T21:44:08.174Z,79.87
2018-08-25T21:46:36.929Z,79.43
2018-08-25T21:49:05.916Z,80.34
2018-08-25T21:51:35.836Z,80.44
2018-08-25T21:54:04.753Z,80.43
2018-08-25T21:56:33.496Z,80.97
2018-08-25T21:59:02.188Z,81.48
2018-08-25T22:01:37.059Z,80.89
2018-08-25T22:04:06.003Z,80.77
2018-08-25T22:06:35.633Z,80.89
2018-08-25T22:09:07.048Z,81.26
2018-08-25T22:11:35.882Z,81.96
2018-08-25T22:14:04.776Z,81.41
2018-08-25T22:16:34.183Z,82.46
2018-08-25T22:19:03.490Z,82.81
2018-08-25T22:21:32.329Z,83.48
2018-08-25T22:24:01.926Z,83.80
2018-08-25T22:26:31.403Z,83.16
2018-08-25T22:29:00.199Z,83.79
2018-08-25T22:31:29.395Z,83.76
2018-08-25T22:33:58.810Z,84.08
2018-08-25T22:36:27.806Z,82.68
2018-08-25T22:38:56.820Z,83.87
2018-08-25T22:41:25.885Z,84.48
2018-08-25T22:43:54.751Z,84.65
2018-08-25T22:46:24.720Z,84.65
2018-08-25T22:48:53.844Z,85.42
2018-08-25T22:51:23.740Z,85.85
2018-08-25T22:53:52.600Z,86.48
2018-08-25T22:56:21.292Z,86.75
2018-08-25T22:58:50.892Z,85.78
2018-08-25T23:01:19.828Z,85.49
2018-08-25T23:03:49.245Z,85.56
2018-08-25T23:06:18.195Z,85.66
2018-08-25T23:08:47.236Z,85.79
2018-08-25T23:11:15.900Z,85.95
2018-08-25T23:13:44.671Z,85.74
2018-08-25T23:16:14.484Z,86.48
2018-08-25T23:18:44.214Z,86.53
2018-08-25T23:21:14.337Z,87.35
2018-08-25T23:23:43.081Z,87.43
2018-08-25T23:26:11.977Z,87.64
2018-08-25T23:28:40.791Z,86.28
2018-08-25T23:31:09.778Z,85.92
2018-08-25T23:33:38.500Z,86.94
2018-08-25T23:36:07.554Z,85.93
2018-08-25T23:38:38.291Z,85.00
2018-08-25T23:41:07.794Z,84.81
2018-08-25T23:43:37.872Z,84.21
2018-08-25T23:46:06.728Z,85.36
2018-08-25T23:48:36.235Z,85.69
2018-08-25T23:51:05.732Z,86.21
2018-08-25T23:53:34.766Z,86.83
2018-08-25T23:56:04.223Z,87.59
2018-08-25T23:58:33.667Z,87.14
